createdAt,value
2018-11-28T00:01:40.728Z,32.33
2018-11-28T00:04:09.028Z,34.37
2018-11-28T00:06:37.212Z,31.10
2018-11-28T00:09:08.575Z,29.23
2018-11-28T00:11:36.980Z,36.43
2018-11-28T00:14:05.433Z,38.77
2018-11-28T00:16:33.587Z,32.30
2018-11-28T00:19:01.904Z,36.50
2018-11-28T00:21:30.097Z,28.77
2018-11-28T00:23:58.436Z,37.37
2018-11-28T00:26:26.710Z,37.23
2018-11-28T00:28:54.969Z,30.60
2018-11-28T00:31:23.231Z,29.33
2018-11-28T00:33:51.484Z,34.03
2018-11-28T00:36:19.840Z,33.20
2018-11-28T00:38:48.928Z,36.13
2018-11-28T00:41:17.405Z,35.63
2018-11-28T00:43:46.336Z,35.97
2018-11-28T00:46:15.362Z,33.73
2018-11-28T00:48:43.720Z,39.23
2018-11-28T00:51:12.105Z,38.90
2018-11-28T00:53:40.404Z,36.87
2018-11-28T00:56:08.640Z,35.83
2018-11-28T00:58:36.840Z,35.07
2018-11-28T01:01:05.172Z,37.87
2018-11-28T01:03:33.386Z,35.20
2018-11-28T01:06:01.580Z,38.60
2018-11-28T01:08:29.764Z,35.93
2018-11-28T01:10:58.025Z,34.80
2018-11-28T01:13:26.224Z,37.97
2018-11-28T01:15:54.425Z,36.43
2018-11-28T01:18:22.656Z,36.13
2018-11-28T01:20:50.859Z,36.83
2018-11-28T01:23:19.072Z,39.03
2018-11-28T01:25:47.277Z,39.23
2018-11-28T01:28:15.508Z,38.87
2018-11-28T01:30:44.179Z,37.03
2018-11-28T01:33:12.437Z,39.50
2018-11-28T01:35:40.631Z,35.97
2018-11-28T01:38:09.165Z,40.27
2018-11-28T01:40:37.380Z,35.60
2018-11-28T01:43:07.226Z,43.37
2018-11-28T01:45:34.686Z,38.50
2018-11-28T01:48:02.916Z,40.03
2018-11-28T01:50:31.113Z,36.03
2018-11-28T01:52:59.326Z,37.87
2018-11-28T01:55:27.570Z,40.53
2018-11-28T01:57:55.758Z,34.33
2018-11-28T02:00:26.013Z,38.50
2018-11-28T02:02:55.569Z,36.27
2018-11-28T02:05:24.072Z,33.33
2018-11-28T02:07:52.297Z,38.50
2018-11-28T02:10:20.526Z,36.97
2018-11-28T02:12:48.692Z,33.00
2018-11-28T02:15:24.484Z,38.53
2018-11-28T02:17:52.712Z,32.17
2018-11-28T02:20:20.933Z,37.37
2018-11-28T02:22:49.190Z,41.73
2018-11-28T02:25:17.880Z,35.67
2018-11-28T02:27:46.640Z,35.93
2018-11-28T02:30:15.735Z,36.10
2018-11-28T02:32:44.250Z,38.07
2018-11-28T02:35:14.234Z,38.50
2018-11-28T02:37:42.429Z,36.67
2018-11-28T02:40:11.773Z,38.17
2018-11-28T02:42:39.994Z,37.53
2018-11-28T02:45:23.268Z,36.00
2018-11-28T02:47:52.290Z,34.20
2018-11-28T02:50:20.530Z,41.50
2018-11-28T02:52:48.716Z,34.13
2018-11-28T02:55:17.644Z,36.10
2018-11-28T02:57:47.879Z,37.87
2018-11-28T03:00:20.116Z,34.03
2018-11-28T03:02:48.325Z,36.27
2018-11-28T03:05:16.577Z,36.93
2018-11-28T03:07:44.752Z,32.23
2018-11-28T03:10:13.992Z,39.77
2018-11-28T03:12:42.156Z,36.17
2018-11-28T03:15:12.057Z,36.13
2018-11-28T03:17:40.238Z,35.73
2018-11-28T03:20:09.702Z,37.10
2018-11-28T03:22:37.864Z,37.03
2018-11-28T03:25:07.678Z,37.53
2018-11-28T03:27:36.078Z,36.77
2018-11-28T03:30:08.038Z,37.67
2018-11-28T03:32:36.270Z,37.10
2018-11-28T03:35:04.977Z,37.10
2018-11-28T03:37:33.166Z,40.27
2018-11-28T03:40:01.378Z,38.53
2018-11-28T03:42:29.596Z,37.03
2018-11-28T03:44:57.802Z,35.43
2018-11-28T03:47:26.005Z,39.03
2018-11-28T03:49:54.210Z,40.60
2018-11-28T03:52:22.425Z,39.97
2018-11-28T03:54:50.633Z,44.70
2018-11-28T03:57:18.818Z,41.33
2018-11-28T03:59:47.000Z,40.27
2018-11-28T04:02:15.156Z,36.53
2018-11-28T04:04:43.313Z,46.47
2018-11-28T04:07:11.460Z,43.73
2018-11-28T04:09:39.624Z,46.03
2018-11-28T04:12:07.777Z,42.50
2018-11-28T04:14:36.025Z,38.20
2018-11-28T04:17:04.176Z,43.57
2018-11-28T04:19:32.337Z,40.30
2018-11-28T04:22:00.508Z,43.13
2018-11-28T04:24:28.704Z,38.90
2018-11-28T04:26:56.875Z,44.67
2018-11-28T04:29:25.138Z,40.93
2018-11-28T04:31:53.420Z,38.10
2018-11-28T04:34:21.594Z,45.70
2018-11-28T04:36:49.741Z,38.07
2018-11-28T04:39:18.076Z,45.77
2018-11-28T04:41:46.239Z,42.83
2018-11-28T04:44:14.393Z,44.90
2018-11-28T04:46:42.554Z,46.33
2018-11-28T04:49:10.714Z,43.07
2018-11-28T04:51:38.919Z,39.53
2018-11-28T04:54:07.250Z,43.17
2018-11-28T04:56:35.450Z,42.90
2018-11-28T04:59:03.898Z,40.30
2018-11-28T05:01:32.064Z,42.43
2018-11-28T05:04:00.348Z,39.10
2018-11-28T05:07:32.601Z,43.50
2018-11-28T05:10:00.882Z,42.40
2018-11-28T05:12:29.073Z,42.60
2018-11-28T05:14:57.331Z,38.43
2018-11-28T05:17:25.748Z,40.97
2018-11-28T05:19:54.191Z,42.67
2018-11-28T05:22:22.368Z,44.13
2018-11-28T05:24:50.575Z,40.13
2018-11-28T05:27:18.738Z,48.10
2018-11-28T05:29:49.483Z,41.97
2018-11-28T05:32:18.162Z,40.00
2018-11-28T05:34:47.043Z,42.77
2018-11-28T05:37:15.268Z,36.40
2018-11-28T05:39:43.468Z,40.73
2018-11-28T05:42:11.667Z,39.97
2018-11-28T05:44:39.821Z,41.60
2018-11-28T05:47:07.953Z,40.07
2018-11-28T05:49:36.175Z,38.33
2018-11-28T05:52:06.384Z,39.13
2018-11-28T05:54:36.861Z,39.67
2018-11-28T05:57:05.703Z,42.63
2018-11-28T05:59:34.332Z,38.70
2018-11-28T06:02:02.454Z,37.30
2018-11-28T06:04:30.649Z,39.83
2018-11-28T06:06:58.832Z,36.23
2018-11-28T06:09:27.028Z,42.93
2018-11-28T06:11:55.196Z,39.30
2018-11-28T06:14:23.365Z,40.47
2018-11-28T06:16:51.531Z,44.43
2018-11-28T06:19:19.727Z,36.80
2018-11-28T06:21:47.912Z,35.70
2018-11-28T06:24:16.101Z,36.17
2018-11-28T06:26:44.264Z,39.63
2018-11-28T06:29:12.417Z,35.63
2018-11-28T06:31:40.716Z,40.63
2018-11-28T06:34:08.886Z,37.27
2018-11-28T06:39:17.622Z,41.27
2018-11-28T06:41:45.749Z,40.23
2018-11-28T06:44:13.911Z,35.93
2018-11-28T06:46:42.071Z,38.77
2018-11-28T06:49:10.217Z,39.27
2018-11-28T06:51:38.655Z,40.00
2018-11-28T06:54:06.786Z,37.13
2018-11-28T06:56:34.875Z,40.03
2018-11-28T06:59:03.023Z,39.77
2018-11-28T07:01:31.115Z,40.47
2018-11-28T07:03:59.234Z,38.93
2018-11-28T07:06:27.389Z,37.27
2018-11-28T07:08:55.510Z,39.33
2018-11-28T07:11:23.678Z,38.50
2018-11-28T07:13:51.803Z,37.90
2018-11-28T07:16:19.956Z,39.73
2018-11-28T07:19:00.007Z,43.73
2018-11-28T07:21:28.115Z,38.23
2018-11-28T07:23:56.229Z,34.73
2018-11-28T07:26:24.327Z,39.53
2018-11-28T07:28:52.442Z,38.40
2018-11-28T07:31:20.543Z,37.57
2018-11-28T07:33:48.660Z,38.37
2018-11-28T07:36:16.764Z,39.07
2018-11-28T07:38:44.881Z,36.97
2018-11-28T07:41:12.979Z,42.07
2018-11-28T07:43:41.087Z,42.40
2018-11-28T07:46:09.190Z,38.87
2018-11-28T07:48:37.299Z,38.27
2018-11-28T07:51:05.414Z,38.00
2018-11-28T07:53:33.529Z,41.40
2018-11-28T07:56:01.623Z,34.20
2018-11-28T07:58:29.743Z,35.37
2018-11-28T08:00:57.838Z,32.40
2018-11-28T08:03:25.938Z,35.33
2018-11-28T08:05:54.035Z,36.93
2018-11-28T08:08:23.379Z,39.70
2018-11-28T08:10:50.230Z,39.97
2018-11-28T08:13:18.330Z,36.20
2018-11-28T08:15:46.423Z,35.47
2018-11-28T08:18:14.541Z,32.37
2018-11-28T08:20:42.640Z,42.60
2018-11-28T08:23:10.762Z,33.53
2018-11-28T08:25:38.879Z,39.87
2018-11-28T08:28:07.022Z,37.33
2018-11-28T08:30:35.112Z,37.70
2018-11-28T08:33:03.259Z,35.03
2018-11-28T08:35:31.367Z,37.53
2018-11-28T08:37:59.483Z,39.07
2018-11-28T08:40:27.606Z,37.10
2018-11-28T08:42:56.827Z,39.60
2018-11-28T08:45:24.925Z,33.50
2018-11-28T08:47:54.792Z,35.83
2018-11-28T08:50:25.987Z,37.77
2018-11-28T08:52:54.106Z,33.90
2018-11-28T08:55:22.203Z,35.60
2018-11-28T08:57:50.319Z,35.73
2018-11-28T09:00:21.264Z,32.30
2018-11-28T09:02:51.502Z,39.07
2018-11-28T09:05:19.607Z,38.07
2018-11-28T09:07:48.014Z,40.40
2018-11-28T09:10:16.839Z,34.17
2018-11-28T09:12:45.454Z,38.07
2018-11-28T09:15:18.003Z,32.27
2018-11-28T09:17:46.123Z,32.43
2018-11-28T09:20:14.719Z,32.30
2018-11-28T09:22:42.858Z,33.07
2018-11-28T09:25:13.970Z,33.87
2018-11-28T09:27:42.775Z,28.57
2018-11-28T09:30:15.007Z,31.13
2018-11-28T09:32:43.182Z,31.70
2018-11-28T09:35:12.071Z,31.90
2018-11-28T09:37:45.466Z,35.07
2018-11-28T09:40:24.187Z,28.23
2018-11-28T09:42:54.398Z,28.13
2018-11-28T09:45:22.516Z,36.17
2018-11-28T09:47:50.651Z,31.40
2018-11-28T09:50:20.774Z,32.87
2018-11-28T09:52:48.916Z,30.57
2018-11-28T09:55:18.866Z,28.67
2018-11-28T09:57:47.215Z,30.93
2018-11-28T10:00:17.390Z,30.33
2018-11-28T10:02:45.588Z,34.20
2018-11-28T10:05:26.814Z,32.60
2018-11-28T10:07:54.978Z,28.67
2018-11-28T10:10:23.214Z,30.53
2018-11-28T10:12:51.456Z,30.07
2018-11-28T10:15:22.714Z,30.27
2018-11-28T10:17:50.874Z,30.77
2018-11-28T10:20:19.615Z,30.23
2018-11-28T10:22:48.682Z,27.17
2018-11-28T10:25:20.338Z,28.40
2018-11-28T10:27:52.774Z,28.73
2018-11-28T10:30:23.054Z,25.50
2018-11-28T10:32:51.894Z,22.83
2018-11-28T10:35:20.014Z,23.90
2018-11-28T10:37:48.503Z,26.33
2018-11-28T10:40:19.554Z,16.93
2018-11-28T10:42:49.783Z,24.97
2018-11-28T10:45:19.100Z,22.33
2018-11-28T10:47:47.233Z,26.83
2018-11-28T10:50:15.604Z,23.30
2018-11-28T10:52:43.751Z,20.90
2018-11-28T10:55:15.943Z,21.27
2018-11-28T10:57:44.082Z,22.77
2018-11-28T11:00:24.775Z,24.97
2018-11-28T11:02:58.566Z,24.07
2018-11-28T11:05:32.068Z,25.13
2018-11-28T11:08:05.449Z,24.73
2018-11-28T11:10:39.039Z,22.83
2018-11-28T11:13:12.632Z,23.07
2018-11-28T11:15:40.728Z,24.50
2018-11-28T11:18:10.681Z,22.13
2018-11-28T11:20:38.106Z,24.33
2018-11-28T11:23:08.382Z,25.60
2018-11-28T11:25:35.275Z,21.83
2018-11-28T11:28:03.411Z,20.83
2018-11-28T11:30:31.610Z,22.33
2018-11-28T11:32:59.723Z,24.93
2018-11-28T11:35:27.839Z,21.53
2018-11-28T11:37:55.951Z,19.40
2018-11-28T11:40:24.071Z,22.73
2018-11-28T11:42:52.235Z,23.53
2018-11-28T11:45:20.351Z,20.00
2018-11-28T11:47:48.459Z,22.90
2018-11-28T11:50:17.664Z,21.27
2018-11-28T11:52:45.782Z,21.30
2018-11-28T11:55:18.845Z,19.23
2018-11-28T11:57:47.406Z,20.03
2018-11-28T12:00:22.648Z,19.63
2018-11-28T12:03:03.266Z,22.33
2018-11-28T12:05:31.371Z,21.80
2018-11-28T12:07:59.492Z,20.27
2018-11-28T12:10:27.624Z,18.57
2018-11-28T12:12:55.721Z,21.80
2018-11-28T12:15:23.827Z,21.50
2018-11-28T12:17:51.966Z,20.73
2018-11-28T12:20:26.555Z,26.33
2018-11-28T12:22:55.172Z,23.73
2018-11-28T12:25:23.298Z,26.77
2018-11-28T12:27:51.543Z,23.23
2018-11-28T12:30:19.651Z,21.03
2018-11-28T12:32:47.775Z,20.17
2018-11-28T12:35:17.147Z,20.90
2018-11-28T12:37:45.262Z,18.30
2018-11-28T12:40:15.222Z,18.03
2018-11-28T12:42:46.043Z,17.17
2018-11-28T12:45:15.146Z,18.10
2018-11-28T12:47:44.159Z,18.17
2018-11-28T12:50:14.267Z,15.30
2018-11-28T12:52:42.375Z,18.87
2018-11-28T12:55:10.573Z,19.43
2018-11-28T12:57:38.678Z,17.23
2018-11-28T13:00:10.043Z,16.57
2018-11-28T13:02:38.174Z,14.73
2018-11-28T13:05:08.826Z,16.80
2018-11-28T13:07:36.967Z,16.33
2018-11-28T13:10:09.641Z,16.33
2018-11-28T13:12:37.960Z,16.47
2018-11-28T13:15:12.373Z,16.17
2018-11-28T13:17:40.675Z,17.53
2018-11-28T13:20:11.347Z,18.63
2018-11-28T13:22:39.577Z,16.93
2018-11-28T13:25:11.837Z,17.87
2018-11-28T13:27:40.029Z,15.57
2018-11-28T13:30:11.724Z,15.07
2018-11-28T13:32:40.582Z,17.53
2018-11-28T13:35:08.862Z,16.90
2018-11-28T13:37:37.039Z,16.70
2018-11-28T13:40:06.774Z,17.53
2018-11-28T13:42:35.010Z,18.33
2018-11-28T13:45:03.185Z,15.60
2018-11-28T13:47:31.363Z,19.73
2018-11-28T13:49:59.602Z,16.90
2018-11-28T13:52:27.754Z,18.23
2018-11-28T13:55:37.666Z,17.33
2018-11-28T13:57:24.690Z,18.00
2018-11-28T13:59:52.322Z,16.73
2018-11-28T14:02:20.478Z,18.33
2018-11-28T14:04:49.077Z,15.20
2018-11-28T14:07:17.254Z,17.90
2018-11-28T14:09:45.405Z,16.67
2018-11-28T14:12:13.564Z,19.43
2018-11-28T14:14:41.745Z,18.97
2018-11-28T14:17:09.951Z,19.50
2018-11-28T14:19:38.094Z,16.20
2018-11-28T14:22:06.269Z,16.17
2018-11-28T14:24:34.422Z,20.80
2018-11-28T14:27:02.621Z,17.20
2018-11-28T14:29:30.773Z,20.00
2018-11-28T14:31:58.962Z,19.00
2018-11-28T14:34:27.107Z,18.47
2018-11-28T14:36:55.265Z,18.53
2018-11-28T14:39:23.437Z,19.70
2018-11-28T14:41:51.595Z,19.47
2018-11-28T14:44:19.757Z,18.37
2018-11-28T14:46:47.931Z,17.07
2018-11-28T14:49:16.103Z,21.03
2018-11-28T14:51:44.301Z,18.97
2018-11-28T14:54:12.460Z,23.97
2018-11-28T14:56:40.583Z,22.57
2018-11-28T14:59:08.749Z,17.70
2018-11-28T15:01:36.909Z,22.00
2018-11-28T15:04:05.392Z,21.73
2018-11-28T15:06:40.539Z,22.87
2018-11-28T15:09:15.312Z,23.57
2018-11-28T15:11:44.158Z,24.90
2018-11-28T15:14:12.283Z,22.67
2018-11-28T15:16:40.406Z,36.83
2018-11-28T15:19:08.550Z,24.73
2018-11-28T15:21:36.675Z,25.50
2018-11-28T15:24:05.124Z,25.57
2018-11-28T15:26:33.250Z,21.47
2018-11-28T15:29:01.471Z,25.67
2018-11-28T15:31:29.614Z,22.67
2018-11-28T15:33:57.774Z,23.63
2018-11-28T15:36:25.884Z,26.87
2018-11-28T15:38:54.032Z,22.70
2018-11-28T15:41:22.171Z,21.60
2018-11-28T15:43:50.293Z,22.33
2018-11-28T15:46:18.431Z,23.67
2018-11-28T15:48:46.662Z,23.10
2018-11-28T15:51:14.804Z,26.70
2018-11-28T15:53:42.964Z,23.83
2018-11-28T15:56:11.132Z,27.50
2018-11-28T15:58:39.267Z,26.87
2018-11-28T16:01:07.438Z,26.47
2018-11-28T16:03:35.567Z,27.30
2018-11-28T16:06:03.719Z,23.40
2018-11-28T16:08:34.210Z,26.37
2018-11-28T16:11:04.624Z,25.73
2018-11-28T16:13:32.980Z,30.20
2018-11-28T16:16:01.111Z,35.53
2018-11-28T16:18:30.483Z,28.43
2018-11-28T16:21:02.633Z,33.57
2018-11-28T16:23:30.904Z,32.90
2018-11-28T16:25:59.052Z,29.33
2018-11-28T16:28:27.168Z,31.83
2018-11-28T16:30:55.312Z,30.40
2018-11-28T16:33:23.774Z,34.23
2018-11-28T16:35:51.943Z,31.67
2018-11-28T16:38:20.929Z,32.10
2018-11-28T16:40:49.054Z,30.23
2018-11-28T16:43:17.162Z,32.37
2018-11-28T16:45:45.335Z,33.47
2018-11-28T16:48:13.426Z,30.37
2018-11-28T16:50:41.550Z,35.50
2018-11-28T16:53:09.654Z,30.70
2018-11-28T16:55:37.766Z,34.60
2018-11-28T16:58:06.853Z,34.67
2018-11-28T17:00:35.423Z,35.27
2018-11-28T17:03:03.515Z,31.23
2018-11-28T17:05:31.786Z,33.57
2018-11-28T17:07:59.899Z,35.93
2018-11-28T17:10:29.571Z,35.67
2018-11-28T17:12:58.574Z,33.97
2018-11-28T17:15:26.678Z,30.37
2018-11-28T17:17:54.818Z,33.43
2018-11-28T17:20:25.009Z,33.70
2018-11-28T17:22:54.320Z,35.80
2018-11-28T17:25:31.417Z,36.77
2018-11-28T17:27:59.641Z,39.00
2018-11-28T17:30:28.986Z,34.93
2018-11-28T17:32:57.167Z,38.93
2018-11-28T17:35:25.281Z,37.00
2018-11-28T17:37:53.615Z,36.97
2018-11-28T17:40:22.842Z,34.00
2018-11-28T17:42:53.091Z,39.97
2018-11-28T17:45:21.794Z,37.87
2018-11-28T17:47:50.779Z,36.57
2018-11-28T17:50:20.062Z,39.00
2018-11-28T17:52:57.969Z,34.80
2018-11-28T17:55:27.278Z,39.97
2018-11-28T17:57:55.378Z,45.63
2018-11-28T18:00:23.512Z,38.73
2018-11-28T18:02:51.670Z,36.87
2018-11-28T18:05:19.771Z,40.97
2018-11-28T18:07:47.876Z,46.60
2018-11-28T18:10:18.102Z,42.77
2018-11-28T18:12:57.651Z,41.43
2018-11-28T18:15:25.784Z,44.80
2018-11-28T18:17:55.364Z,41.67
2018-11-28T18:20:23.491Z,41.73
2018-11-28T18:22:51.583Z,39.80
2018-11-28T18:25:19.758Z,40.57
2018-11-28T18:27:47.868Z,40.00
2018-11-28T18:30:15.991Z,47.90
2018-11-28T18:32:44.111Z,48.07
2018-11-28T18:35:12.252Z,41.97
2018-11-28T18:37:40.424Z,48.50
2018-11-28T18:40:11.282Z,43.93
2018-11-28T18:42:39.989Z,41.10
2018-11-28T18:45:10.710Z,43.10
2018-11-28T18:47:38.834Z,39.43
2018-11-28T18:50:08.311Z,43.97
2018-11-28T18:52:36.455Z,47.87
2018-11-28T18:55:06.066Z,35.87
2018-11-28T18:57:34.199Z,48.23
2018-11-28T19:00:02.356Z,38.73
2018-11-28T19:02:30.479Z,43.73
2018-11-28T19:04:58.619Z,44.20
2018-11-28T19:07:26.759Z,40.83
2018-11-28T19:09:54.907Z,40.20
2018-11-28T19:12:23.036Z,39.30
2018-11-28T19:14:51.181Z,37.97
2018-11-28T19:17:19.310Z,38.43
2018-11-28T19:19:47.449Z,43.30
2018-11-28T19:22:15.660Z,39.27
2018-11-28T19:24:43.993Z,38.87
2018-11-28T19:27:12.183Z,35.20
2018-11-28T19:29:40.417Z,37.83
2018-11-28T19:32:08.617Z,33.10
2018-11-28T19:34:36.751Z,35.77
2018-11-28T19:37:04.920Z,31.97
2018-11-28T19:39:33.190Z,35.10
2018-11-28T19:42:01.910Z,29.77
2018-11-28T19:44:30.454Z,31.27
2018-11-28T19:46:58.885Z,35.27
2018-11-28T19:49:27.360Z,35.47
2018-11-28T19:52:15.089Z,32.87
2018-11-28T19:54:43.808Z,36.73
2018-11-28T20:00:23.789Z,33.07
2018-11-28T20:03:03.767Z,34.60
2018-11-28T20:05:32.129Z,34.73
2018-11-28T20:08:01.453Z,32.73
2018-11-28T20:10:30.399Z,35.17
2018-11-28T20:12:59.396Z,32.73
2018-11-28T20:15:29.135Z,33.73
2018-11-28T20:17:57.887Z,32.50
2018-11-28T20:20:26.325Z,33.37
2018-11-28T20:22:54.573Z,36.07
2018-11-28T20:25:23.841Z,36.33
2018-11-28T20:27:54.006Z,38.23
2018-11-28T20:30:25.406Z,35.97
2018-11-28T20:32:53.670Z,30.53
2018-11-28T20:35:22.426Z,33.23
2018-11-28T20:37:50.947Z,34.67
2018-11-28T20:40:28.061Z,30.27
2018-11-28T20:42:56.918Z,34.93
2018-11-28T20:45:25.455Z,32.93
2018-11-28T20:47:54.343Z,32.23
2018-11-28T20:50:28.798Z,31.27
2018-11-28T20:53:00.931Z,32.90
2018-11-28T20:55:41.461Z,34.43
2018-11-28T20:58:12.018Z,33.83
2018-11-28T21:00:40.695Z,35.47
2018-11-28T21:03:09.030Z,35.57
2018-11-28T21:05:37.289Z,34.83
2018-11-28T21:08:06.998Z,34.17
2018-11-28T21:10:37.245Z,34.13
2018-11-28T21:13:06.954Z,31.87
2018-11-28T21:15:35.200Z,30.47
2018-11-28T21:18:03.582Z,31.07
2018-11-28T21:20:31.790Z,35.87
2018-11-28T21:23:02.472Z,38.67
2018-11-28T21:25:30.705Z,37.17
2018-11-28T21:27:58.915Z,33.83
2018-11-28T21:30:27.238Z,33.83
2018-11-28T21:32:55.579Z,33.13
2018-11-28T21:35:27.081Z,39.33
2018-11-28T21:37:55.287Z,37.63
2018-11-28T21:40:23.493Z,36.77
2018-11-28T21:42:52.042Z,36.87
2018-11-28T21:45:20.989Z,36.57
2018-11-28T21:47:49.370Z,35.33
2018-11-28T21:50:18.326Z,36.70
2018-11-28T21:52:46.660Z,40.77
2018-11-28T21:55:22.697Z,32.40
2018-11-28T21:57:50.979Z,42.10
2018-11-28T22:00:20.144Z,33.23
2018-11-28T22:02:48.357Z,37.10
2018-11-28T22:05:17.182Z,37.87
2018-11-28T22:07:45.383Z,33.23
2018-11-28T22:10:15.498Z,37.10
2018-11-28T22:12:43.911Z,38.13
2018-11-28T22:15:14.386Z,37.40
2018-11-28T22:17:43.673Z,31.87
2018-11-28T22:20:12.708Z,36.63
2018-11-28T22:22:41.067Z,33.97
2018-11-28T22:25:20.937Z,35.83
2018-11-28T22:27:49.248Z,37.40
2018-11-28T22:30:19.401Z,35.73
2018-11-28T22:32:47.614Z,32.30
2018-11-28T22:35:15.962Z,35.87
2018-11-28T22:37:44.161Z,32.63
2018-11-28T22:40:14.628Z,35.50
2018-11-28T22:42:42.811Z,32.17
2018-11-28T22:45:15.098Z,34.53
2018-11-28T22:47:43.333Z,34.10
2018-11-28T22:50:12.343Z,34.40
2018-11-28T22:52:40.613Z,35.57
2018-11-28T22:55:09.925Z,31.80
2018-11-28T22:57:38.134Z,33.37
2018-11-28T23:00:10.689Z,32.20
2018-11-28T23:03:01.784Z,33.00
2018-11-28T23:05:35.857Z,32.37
2018-11-28T23:08:05.499Z,30.80
2018-11-28T23:10:33.680Z,35.33
2018-11-28T23:13:02.030Z,27.27
2018-11-28T23:15:30.209Z,25.70
2018-11-28T23:17:58.421Z,28.87
2018-11-28T23:20:26.623Z,31.20
2018-11-28T23:22:54.825Z,29.87
2018-11-28T23:25:23.013Z,28.53
2018-11-28T23:27:51.255Z,24.73
2018-11-28T23:30:20.320Z,28.33
2018-11-28T23:32:49.168Z,27.90
2018-11-28T23:35:17.629Z,31.50
2018-11-28T23:37:46.877Z,29.23
2018-11-28T23:40:19.039Z,28.43
2018-11-28T23:42:47.291Z,28.57
2018-11-28T23:45:15.720Z,30.87
2018-11-28T23:47:43.952Z,33.43
2018-11-28T23:50:14.176Z,30.93
2018-11-28T23:52:42.469Z,27.63
2018-11-28T23:55:19.423Z,27.73
2018-11-28T23:57:47.607Z,28.10
